Time;durP1;ratioP1;P1;durP2;ratioP2;P2;SDS_P1;SDS_P2;PMS_P1;PMS_P2;Temp;Humidity;BMP_temperature;BMP_pressure;BME280_temperature;BME280_humidity;BME280_pressure;Samples;Min_cycle;Max_cycle;Signal;HPM_P1;HPM_P2
2022/04/13 00:00:51;;;;;;;5.70;4.35;;;11.40;99.90;;;;;;5006675;28;20093;-88
2022/04/13 00:03:38;;;;;;;8.07;4.30;;;11.40;99.90;;;;;;5009718;28;20414;-87
2022/04/13 00:06:25;;;;;;;7.10;5.03;;;11.30;99.90;;;;;;5008309;28;20042;-88
2022/04/13 00:09:12;;;;;;;7.03;4.18;;;11.30;99.90;;;;;;5007088;28;20049;-89
2022/04/13 00:12:00;;;;;;;9.10;4.88;;;11.20;99.90;;;;;;5010403;28;20041;-88
2022/04/13 00:14:47;;;;;;;5.28;3.72;;;11.20;99.90;;;;;;5006025;28;20443;-88
2022/04/13 00:17:36;;;;;;;8.27;4.40;;;11.30;99.90;;;;;;5010334;28;20475;-87
2022/04/13 00:20:23;;;;;;;7.65;3.88;;;11.50;99.90;;;;;;5004039;28;20129;-89
2022/04/13 00:23:11;;;;;;;7.75;3.90;;;11.70;99.90;;;;;;5002822;28;20097;-89
2022/04/13 00:25:59;;;;;;;9.85;4.50;;;11.80;99.90;;;;;;5011536;28;20069;-88
2022/04/13 00:28:46;;;;;;;6.95;4.00;;;11.80;99.90;;;;;;5013885;28;20131;-89
2022/04/13 00:31:33;;;;;;;9.90;4.30;;;11.80;99.90;;;;;;5002466;28;20097;-87
2022/04/13 00:34:23;;;;;;;6.40;3.88;;;11.60;99.90;;;;;;4998487;28;20174;-89
2022/04/13 00:37:10;;;;;;;6.75;4.28;;;11.50;99.90;;;;;;5012044;28;20088;-89
2022/04/13 00:39:57;;;;;;;7.00;4.13;;;11.40;99.90;;;;;;5009962;28;20065;-89
2022/04/13 00:42:45;;;;;;;7.18;4.07;;;11.30;99.90;;;;;;5008421;28;20076;-89
2022/04/13 00:45:33;;;;;;;7.95;4.30;;;11.10;99.90;;;;;;5011723;28;20050;-88
2022/04/13 00:48:26;;;;;;;7.95;4.53;;;11.00;99.90;;;;;;5009610;28;20060;-88
2022/04/13 00:51:13;;;;;;;9.25;4.80;;;10.90;99.90;;;;;;5013371;28;20148;-86
2022/04/13 00:54:00;;;;;;;6.80;3.60;;;10.90;99.90;;;;;;5006522;28;20046;-87
2022/04/13 00:56:49;;;;;;;7.93;4.80;;;10.80;99.90;;;;;;5006469;28;20050;-87
2022/04/13 00:59:41;;;;;;;8.27;4.00;;;10.80;99.90;;;;;;5012323;28;20065;-88
2022/04/13 01:02:30;;;;;;;7.65;4.32;;;10.70;99.90;;;;;;5009678;28;20076;-84
2022/04/13 01:05:20;;;;;;;6.65;4.05;;;10.70;99.90;;;;;;5011370;28;20053;-87
2022/04/13 01:08:08;;;;;;;10.40;4.32;;;10.60;99.90;;;;;;4999035;28;20058;-91
2022/04/13 01:10:58;;;;;;;6.68;4.07;;;10.60;99.90;;;;;;5004145;28;20034;-86
2022/04/13 01:13:45;;;;;;;6.57;4.28;;;10.50;99.90;;;;;;5003882;28;20050;-89
2022/04/13 01:16:34;;;;;;;6.50;4.43;;;10.40;99.90;;;;;;5008862;28;20054;-87
2022/04/13 01:19:22;;;;;;;7.93;4.78;;;10.40;99.90;;;;;;4999852;28;20060;-86
2022/04/13 01:22:27;;;;;;;10.05;4.50;;;10.30;99.90;;;;;;5009203;28;20180;-87
2022/04/13 01:25:14;;;;;;;6.78;4.30;;;10.40;99.90;;;;;;5009882;28;20049;-86
2022/04/13 01:28:02;;;;;;;6.10;3.97;;;10.30;99.90;;;;;;5011720;28;20402;-88
2022/04/13 01:30:49;;;;;;;7.13;4.00;;;10.30;99.90;;;;;;5009943;28;20054;-88
2022/04/13 01:33:39;;;;;;;6.95;4.43;;;10.20;99.90;;;;;;5009739;28;20128;-86
2022/04/13 01:36:27;;;;;;;7.15;4.85;;;10.20;99.90;;;;;;5027301;28;20156;-86
2022/04/13 01:39:16;;;;;;;6.63;4.38;;;10.10;99.90;;;;;;5010742;28;20058;-89
2022/04/13 01:42:06;;;;;;;10.60;5.25;;;10.00;99.90;;;;;;5011510;28;20058;-86
2022/04/13 01:44:53;;;;;;;9.75;5.53;;;10.00;99.90;;;;;;5027418;28;20050;-87
2022/04/13 01:47:42;;;;;;;9.60;4.55;;;10.10;99.90;;;;;;5016435;28;20048;-89
2022/04/13 01:50:31;;;;;;;7.95;5.35;;;10.10;99.90;;;;;;5005997;28;20105;-88
2022/04/13 01:53:18;;;;;;;7.93;4.95;;;10.00;99.90;;;;;;5011733;28;20077;-87
2022/04/13 01:56:05;;;;;;;9.30;5.20;;;10.00;99.90;;;;;;5012519;28;20104;-89
2022/04/13 01:58:53;;;;;;;8.93;4.45;;;10.00;99.90;;;;;;5000923;28;20054;-89
2022/04/13 02:01:47;;;;;;;10.00;5.20;;;9.90;99.90;;;;;;5012004;28;20061;-88
2022/04/13 02:04:35;;;;;;;9.50;5.22;;;9.90;99.90;;;;;;5003509;28;20065;-88
2022/04/13 02:07:22;;;;;;;8.13;4.90;;;9.70;99.90;;;;;;4999466;28;20157;-88
2022/04/13 02:10:10;;;;;;;7.82;5.32;;;9.70;99.90;;;;;;5003618;28;20188;-89
2022/04/13 02:12:59;;;;;;;6.25;4.72;;;9.60;99.90;;;;;;5011204;28;20050;-89
2022/04/13 02:15:50;;;;;;;13.00;5.20;;;9.40;99.90;;;;;;5008741;28;20042;-88
2022/04/13 02:18:37;;;;;;;7.00;4.88;;;9.40;99.90;;;;;;5001642;28;20050;-90
2022/04/13 02:21:24;;;;;;;8.38;4.82;;;9.30;99.90;;;;;;5009530;28;20509;-89
2022/04/13 02:24:12;;;;;;;8.00;6.22;;;9.30;99.90;;;;;;5007648;28;20061;-89
2022/04/13 02:26:59;;;;;;;7.82;5.30;;;9.30;99.90;;;;;;5010647;28;20208;-88
2022/04/13 02:29:49;;;;;;;11.95;5.38;;;9.40;99.90;;;;;;5007224;28;20033;-88
2022/04/13 02:32:43;;;;;;;8.50;5.82;;;9.50;99.90;;;;;;5010514;28;20145;-89
2022/04/13 02:35:30;;;;;;;7.97;5.90;;;9.60;99.90;;;;;;5011008;28;20042;-89
2022/04/13 02:38:17;;;;;;;8.50;5.85;;;9.60;99.90;;;;;;5012026;28;20096;-89
2022/04/13 02:41:07;;;;;;;9.30;5.43;;;9.70;99.90;;;;;;5013606;28;20050;-88
2022/04/13 02:43:56;;;;;;;8.40;4.80;;;9.80;99.90;;;;;;5011271;28;20069;-88
2022/04/13 02:46:44;;;;;;;6.78;5.00;;;9.70;99.90;;;;;;5004119;28;20050;-85
2022/04/13 02:49:31;;;;;;;10.52;4.65;;;9.70;99.90;;;;;;5015644;28;20065;-87
2022/04/13 02:52:18;;;;;;;10.18;5.20;;;9.80;99.90;;;;;;5011154;28;20092;-85
2022/04/13 02:55:08;;;;;;;9.02;5.57;;;9.80;99.90;;;;;;5006899;28;20063;-88
2022/04/13 02:57:55;;;;;;;8.73;5.35;;;9.80;99.90;;;;;;5003621;28;20123;-87
2022/04/13 03:00:42;;;;;;;8.98;5.78;;;9.70;99.90;;;;;;5021061;28;20156;-86
2022/04/13 03:03:30;;;;;;;7.65;4.75;;;9.60;99.90;;;;;;5017011;28;20073;-86
2022/04/13 03:06:17;;;;;;;8.73;5.13;;;9.50;99.90;;;;;;5011648;28;20145;-86
2022/04/13 03:09:05;;;;;;;7.20;4.93;;;9.60;99.90;;;;;;5017741;28;20133;-85
2022/04/13 03:11:54;;;;;;;9.82;6.07;;;9.50;99.90;;;;;;5013972;28;20038;-80
2022/04/13 03:14:42;;;;;;;11.80;5.95;;;9.40;99.90;;;;;;5024750;28;20061;-80
2022/04/13 03:17:29;;;;;;;11.38;5.85;;;9.30;99.90;;;;;;5035174;28;20030;-81
2022/04/13 03:20:18;;;;;;;11.95;5.50;;;9.20;99.90;;;;;;5034721;28;20030;-79
2022/04/13 03:23:05;;;;;;;8.23;5.38;;;9.10;99.90;;;;;;5034970;28;20038;-81
2022/04/13 03:25:52;;;;;;;7.88;5.60;;;9.00;99.90;;;;;;5033663;28;20026;-86
2022/04/13 03:28:39;;;;;;;8.95;5.85;;;8.80;99.90;;;;;;5034226;28;20046;-82
2022/04/13 03:31:29;;;;;;;10.77;5.68;;;8.80;99.90;;;;;;5035174;28;20038;-79
2022/04/13 03:34:20;;;;;;;9.85;5.78;;;8.70;99.90;;;;;;5033153;28;20030;-85
2022/04/13 03:37:07;;;;;;;7.45;5.82;;;8.60;99.90;;;;;;5011658;28;20046;-86
2022/04/13 03:39:55;;;;;;;14.90;6.70;;;8.50;99.90;;;;;;5020532;28;20106;-87
2022/04/13 03:42:42;;;;;;;10.18;6.60;;;8.40;99.90;;;;;;5019622;28;20050;-88
2022/04/13 03:45:29;;;;;;;8.13;6.45;;;8.40;99.90;;;;;;5015793;28;20054;-88
2022/04/13 03:48:17;;;;;;;10.77;6.80;;;8.30;99.90;;;;;;5013631;28;20077;-89
2022/04/13 03:51:04;;;;;;;10.10;7.30;;;8.20;99.90;;;;;;5008212;28;20077;-86
2022/04/13 03:53:51;;;;;;;11.65;6.75;;;8.20;99.90;;;;;;5002485;28;20050;-86
2022/04/13 03:56:39;;;;;;;11.13;6.35;;;8.10;99.90;;;;;;5019970;28;20049;-87
2022/04/13 03:59:26;;;;;;;8.38;7.03;;;8.10;99.90;;;;;;5019020;28;20046;-87
2022/04/13 04:02:19;;;;;;;14.68;6.93;;;8.10;99.90;;;;;;5014491;28;20113;-87
2022/04/13 04:05:10;;;;;;;10.98;6.43;;;8.20;99.90;;;;;;5012252;28;20058;-87
2022/04/13 04:07:57;;;;;;;10.18;6.38;;;8.10;99.90;;;;;;5010344;28;20085;-87
2022/04/13 04:10:44;;;;;;;10.05;6.22;;;8.10;99.90;;;;;;5015362;28;20104;-84
2022/04/13 04:13:31;;;;;;;11.35;6.53;;;8.00;99.90;;;;;;5031161;28;20120;-86
2022/04/13 04:16:20;;;;;;;10.70;6.35;;;7.90;99.90;;;;;;5013097;28;20065;-87
2022/04/13 04:19:08;;;;;;;10.25;6.63;;;7.80;99.90;;;;;;5030640;28;20361;-89
2022/04/13 04:21:56;;;;;;;9.18;6.20;;;7.90;99.90;;;;;;5012752;28;20104;-87
2022/04/13 04:24:44;;;;;;;9.68;6.72;;;8.00;99.90;;;;;;5027400;28;20061;-85
2022/04/13 04:27:33;;;;;;;11.27;6.18;;;7.90;99.90;;;;;;5019806;28;20141;-87
2022/04/13 04:30:21;;;;;;;8.82;6.10;;;8.00;99.90;;;;;;5008307;28;20046;-87
2022/04/13 04:33:16;;;;;;;9.23;7.13;;;8.10;99.90;;;;;;5017056;28;20061;-88
2022/04/13 04:57:44;;;;;;;11.32;7.18;;;8.00;99.90;;;;;;4936312;29;20098;-86
2022/04/13 05:00:36;;;;;;;15.73;9.18;;;8.00;99.90;;;;;;4964422;28;20058;-86
2022/04/13 05:03:24;;;;;;;25.38;17.23;;;8.10;99.90;;;;;;5007780;28;20061;-87
2022/04/13 05:06:13;;;;;;;13.85;8.82;;;8.30;99.90;;;;;;5003566;28;20675;-86
2022/04/13 05:09:00;;;;;;;13.75;8.55;;;8.50;99.90;;;;;;5012413;28;20060;-87
2022/04/13 05:11:47;;;;;;;14.93;6.47;;;8.50;99.90;;;;;;5010848;28;20042;-85
2022/04/13 05:14:35;;;;;;;12.45;6.15;;;8.60;99.90;;;;;;4997337;28;20118;-84
2022/04/13 05:17:23;;;;;;;10.00;6.10;;;8.80;99.90;;;;;;5009048;28;20117;-85
2022/04/13 05:20:13;;;;;;;10.00;5.30;;;8.90;99.90;;;;;;5010071;28;20057;-85
2022/04/13 05:23:03;;;;;;;9.23;5.22;;;9.10;99.90;;;;;;5008257;28;20451;-85
2022/04/13 05:25:51;;;;;;;7.88;5.20;;;9.20;99.90;;;;;;5007980;28;20110;-82
2022/04/13 05:28:40;;;;;;;6.95;5.22;;;9.30;99.90;;;;;;5003851;28;20046;-85
2022/04/13 05:31:28;;;;;;;6.10;4.68;;;9.40;99.90;;;;;;5011637;28;20038;-85
2022/04/13 05:34:15;;;;;;;16.27;5.72;;;9.50;99.90;;;;;;5007403;28;20056;-83
2022/04/13 05:37:03;;;;;;;10.20;4.78;;;9.70;99.90;;;;;;5008619;28;20081;-85
2022/04/13 05:39:50;;;;;;;10.30;5.90;;;9.80;99.90;;;;;;5018650;28;20220;-83
2022/04/13 05:42:40;;;;;;;9.98;5.07;;;10.00;99.90;;;;;;5022229;28;20048;-85
2022/04/13 05:50:07;;;;;;;6.65;5.20;;;10.30;99.90;;;;;;4918067;29;20060;-79
2022/04/13 05:52:55;;;;;;;9.07;5.10;;;10.60;99.90;;;;;;4943941;28;20057;-81
2022/04/13 05:55:43;;;;;;;8.02;5.10;;;10.70;99.90;;;;;;5026747;28;20140;-80
2022/04/13 05:58:32;;;;;;;6.13;4.70;;;10.90;99.90;;;;;;5025538;28;20038;-80
2022/04/13 06:01:19;;;;;;;9.32;5.10;;;11.10;99.90;;;;;;5027184;28;20029;-84
2022/04/13 06:04:09;;;;;;;10.35;4.75;;;11.30;99.90;;;;;;5031419;28;20069;-81
2022/04/13 06:07:00;;;;;;;8.82;4.78;;;11.40;99.90;;;;;;5027119;28;20046;-84
2022/04/13 06:09:48;;;;;;;14.05;5.55;;;11.50;99.90;;;;;;5019343;28;20046;-86
2022/04/13 06:12:35;;;;;;;14.60;6.40;;;11.60;99.90;;;;;;5022241;28;20061;-82
2022/04/13 06:15:22;;;;;;;12.88;6.05;;;11.70;99.90;;;;;;5019385;28;20046;-89
2022/04/13 06:18:10;;;;;;;7.80;5.07;;;11.60;99.90;;;;;;5023127;28;20132;-88
2022/04/13 06:21:00;;;;;;;13.52;5.53;;;11.50;99.90;;;;;;5019611;28;20073;-87
2022/04/13 06:23:47;;;;;;;10.82;5.38;;;11.50;99.90;;;;;;5022090;28;20042;-87
2022/04/13 06:26:59;;;;;;;9.32;5.53;;;11.70;99.90;;;;;;5023386;28;20112;-87
2022/04/13 06:29:52;;;;;;;11.10;5.38;;;12.00;99.90;;;;;;5015506;28;20054;-88
2022/04/13 06:32:45;;;;;;;7.82;5.35;;;12.40;99.90;;;;;;5013745;28;20050;-86
2022/04/13 06:35:33;;;;;;;10.30;5.75;;;12.80;99.90;;;;;;5012868;28;20108;-88
2022/04/13 06:38:22;;;;;;;9.13;5.20;;;13.20;99.90;;;;;;5018107;28;20100;-89
2022/04/13 06:41:10;;;;;;;9.40;4.97;;;13.60;99.90;;;;;;5008120;28;20070;-88
2022/04/13 06:44:00;;;;;;;10.38;4.88;;;13.80;99.90;;;;;;5022732;28;20113;-84
2022/04/13 06:46:47;;;;;;;8.95;4.88;;;14.20;99.90;;;;;;5014910;28;20060;-87
2022/04/13 06:49:35;;;;;;;8.63;5.20;;;14.40;99.90;;;;;;5004225;28;20058;-83
2022/04/13 06:52:23;;;;;;;8.48;5.35;;;14.40;99.90;;;;;;5009679;28;20442;-89
2022/04/13 06:55:10;;;;;;;9.80;4.90;;;14.50;99.90;;;;;;5005413;28;20395;-84
2022/04/13 06:57:58;;;;;;;12.10;5.70;;;14.50;99.90;;;;;;5006227;28;21380;-89
2022/04/13 07:00:48;;;;;;;10.82;6.15;;;14.50;99.90;;;;;;5015138;28;20081;-86
2022/04/13 07:03:35;;;;;;;7.30;5.68;;;14.50;99.90;;;;;;5024343;28;20418;-85
2022/04/13 07:06:25;;;;;;;11.15;5.35;;;14.60;99.90;;;;;;5010696;28;20053;-89
2022/04/13 07:09:29;;;;;;;10.30;6.70;;;14.70;99.90;;;;;;5020055;28;20134;-90
2022/04/13 07:12:19;;;;;;;13.35;9.25;;;14.80;99.90;;;;;;5010766;28;20042;-91
2022/04/13 07:15:10;;;;;;;11.25;5.75;;;15.00;99.90;;;;;;5011320;28;20463;-88
2022/04/13 07:17:57;;;;;;;9.85;5.50;;;15.20;99.90;;;;;;5012396;28;20061;-89
2022/04/13 07:20:44;;;;;;;9.48;5.32;;;15.30;99.90;;;;;;5028179;28;20026;-89
2022/04/13 07:23:32;;;;;;;7.50;5.25;;;15.40;99.90;;;;;;5011390;28;20100;-91
2022/04/13 07:26:19;;;;;;;12.27;6.22;;;15.40;99.90;;;;;;5017273;28;20052;-89
2022/04/13 07:29:07;;;;;;;9.57;6.50;;;15.40;99.90;;;;;;5020508;28;20488;-86
2022/04/13 07:31:56;;;;;;;7.50;4.50;;;15.60;99.90;;;;;;5026206;28;20387;-90
2022/04/13 07:34:43;;;;;;;13.85;4.25;;;15.90;99.90;;;;;;5009185;28;20050;-82
2022/04/13 07:37:32;;;;;;;5.88;3.70;;;16.20;99.90;;;;;;5006681;28;20042;-84
2022/04/13 07:40:20;;;;;;;8.02;4.10;;;16.60;99.90;;;;;;5007506;28;20421;-82
2022/04/13 07:43:08;;;;;;;6.65;3.58;;;16.80;97.30;;;;;;5008684;28;20054;-85
2022/04/13 07:45:55;;;;;;;9.20;4.15;;;16.80;96.80;;;;;;5007032;28;20108;-84
2022/04/13 07:48:43;;;;;;;10.48;4.00;;;17.20;96.40;;;;;;5008568;28;20073;-86
2022/04/13 07:51:32;;;;;;;6.20;3.42;;;17.50;93.90;;;;;;5007637;28;20070;-84
2022/04/13 07:54:20;;;;;;;5.93;3.33;;;17.80;92.40;;;;;;5005460;28;20046;-85
2022/04/13 07:57:29;;;;;;;6.95;3.63;;;18.30;90.40;;;;;;5008058;28;20470;-85
2022/04/13 08:00:19;;;;;;;9.32;3.20;;;18.90;87.00;;;;;;5013715;28;20324;-84
2022/04/13 08:03:09;;;;;;;9.00;3.20;;;19.10;79.80;;;;;;5009772;28;20164;-85
2022/04/13 08:06:19;;;;;;;5.60;2.35;;;19.20;74.50;;;;;;5009923;28;20388;-86
2022/04/13 08:09:07;;;;;;;4.72;2.47;;;19.50;69.10;;;;;;5007415;28;20105;-85
2022/04/13 08:11:54;;;;;;;6.07;2.60;;;19.60;65.80;;;;;;5012231;28;20390;-85
2022/04/13 08:14:44;;;;;;;6.35;2.97;;;19.70;64.90;;;;;;5011720;28;20052;-86
2022/04/13 08:17:39;;;;;;;5.18;3.13;;;20.00;69.20;;;;;;5013607;28;20141;-85
2022/04/13 08:20:30;;;;;;;6.13;2.83;;;20.20;65.80;;;;;;5009029;28;20145;-85
2022/04/13 08:23:18;;;;;;;8.57;2.30;;;21.10;67.20;;;;;;5013072;28;20038;-83
2022/04/13 08:26:05;;;;;;;8.02;2.58;;;21.70;58.30;;;;;;5009666;28;20371;-85
2022/04/13 08:28:52;;;;;;;7.13;1.92;;;21.70;58.40;;;;;;5003200;28;20038;-84
2022/04/13 08:31:41;;;;;;;4.45;2.00;;;21.90;60.20;;;;;;5005552;28;20772;-82
2022/04/13 08:34:34;;;;;;;6.53;2.90;;;22.10;57.50;;;;;;5010794;28;20046;-86
2022/04/13 08:37:23;;;;;;;5.38;1.98;;;22.30;56.60;;;;;;4988959;28;20448;-86
2022/04/13 08:40:11;;;;;;;6.80;2.30;;;22.70;54.40;;;;;;5015231;28;20131;-86
2022/04/13 08:43:11;;;;;;;6.40;2.08;;;22.80;53.30;;;;;;5009376;28;20192;-86
2022/04/13 08:46:07;;;;;;;5.70;2.10;;;22.80;55.60;;;;;;5009027;28;20093;-85
2022/04/13 08:48:56;;;;;;;11.63;2.55;;;23.20;56.30;;;;;;5007287;28;20437;-87
2022/04/13 08:52:07;;;;;;;6.10;2.78;;;23.60;54.50;;;;;;5007216;28;20341;-85
2022/04/13 08:55:05;;;;;;;6.75;2.17;;;24.10;54.60;;;;;;5008240;28;20046;-84
2022/04/13 08:58:33;;;;;;;5.57;1.60;;;24.30;54.80;;;;;;5011876;28;20424;-87
2022/04/13 09:01:31;;;;;;;6.57;1.77;;;24.10;53.00;;;;;;4995957;28;20117;-87
2022/04/13 09:04:25;;;;;;;7.50;2.08;;;24.40;51.30;;;;;;5013196;28;20049;-85
2022/04/13 09:07:16;;;;;;;3.75;1.77;;;24.30;49.20;;;;;;5012915;28;20145;-89
2022/04/13 09:10:12;;;;;;;7.35;1.75;;;24.80;51.40;;;;;;5003006;28;20046;-87
2022/04/13 09:13:02;;;;;;;5.78;1.90;;;25.10;49.30;;;;;;5013163;28;20347;-87
2022/04/13 09:15:53;;;;;;;4.77;1.83;;;24.80;48.60;;;;;;5002261;28;20065;-86
2022/04/13 09:18:43;;;;;;;11.77;2.47;;;24.80;49.90;;;;;;5005382;28;20053;-85
2022/04/13 09:21:33;;;;;;;7.03;1.63;;;25.00;48.00;;;;;;5007183;28;20046;-88
2022/04/13 09:24:22;;;;;;;6.03;2.03;;;25.50;47.90;;;;;;5006579;28;20132;-83
2022/04/13 09:27:10;;;;;;;5.72;1.95;;;26.20;44.30;;;;;;5009345;28;20046;-85
2022/04/13 09:29:58;;;;;;;5.35;2.15;;;26.20;44.10;;;;;;5010194;28;20503;-89
2022/04/13 09:32:50;;;;;;;7.57;2.03;;;26.50;45.50;;;;;;5006214;28;20388;-83
2022/04/13 09:35:41;;;;;;;6.50;1.63;;;27.20;42.40;;;;;;5007606;28;20046;-84
2022/04/13 09:38:29;;;;;;;5.30;1.88;;;26.90;42.20;;;;;;5019798;28;20162;-85
2022/04/13 09:41:17;;;;;;;9.27;1.90;;;26.40;45.10;;;;;;5007110;28;20180;-85
2022/04/13 09:44:18;;;;;;;6.15;1.95;;;26.90;43.20;;;;;;5009348;28;20430;-85
2022/04/13 09:47:07;;;;;;;5.22;1.50;;;27.80;41.40;;;;;;5009358;28;20057;-82
2022/04/13 09:49:56;;;;;;;7.10;2.30;;;27.90;42.40;;;;;;5004891;28;20152;-86
2022/04/13 09:52:45;;;;;;;7.10;2.20;;;27.90;38.20;;;;;;5008342;28;20045;-87
2022/04/13 09:55:41;;;;;;;6.30;1.90;;;27.30;41.80;;;;;;5004964;28;20333;-85
2022/04/13 09:58:33;;;;;;;10.48;1.83;;;27.20;40.30;;;;;;5005997;28;20049;-86
2022/04/13 10:01:21;;;;;;;5.32;1.83;;;27.20;39.60;;;;;;5008768;28;20352;-84
2022/04/13 10:04:25;;;;;;;6.78;2.15;;;27.90;38.60;;;;;;5009915;28;20046;-86
2022/04/13 10:07:18;;;;;;;6.60;1.67;;;27.90;39.80;;;;;;5008132;28;20042;-84
2022/04/13 10:10:23;;;;;;;9.07;2.10;;;28.20;38.50;;;;;;4999491;28;20095;-84
2022/04/13 10:13:33;;;;;;;8.10;2.33;;;28.10;38.80;;;;;;5009743;28;20050;-83
2022/04/13 10:16:21;;;;;;;5.95;1.55;;;27.90;37.70;;;;;;5007993;28;20042;-86
2022/04/13 10:19:09;;;;;;;5.10;1.67;;;27.50;37.60;;;;;;5006002;28;20053;-83
2022/04/13 10:21:59;;;;;;;5.55;2.20;;;27.90;36.50;;;;;;5002980;28;20448;-84
2022/04/13 10:24:48;;;;;;;8.40;1.90;;;28.00;36.90;;;;;;5006654;28;20061;-83
2022/04/13 10:27:35;;;;;;;9.00;2.10;;;28.20;37.00;;;;;;5003896;28;20046;-84
2022/04/13 10:30:40;;;;;;;7.47;1.75;;;28.60;35.20;;;;;;5008930;28;20049;-83
2022/04/13 10:33:28;;;;;;;5.70;1.40;;;28.50;38.60;;;;;;5006831;28;20116;-84
2022/04/13 10:36:16;;;;;;;4.20;1.50;;;28.60;35.40;;;;;;5001132;28;20099;-85
2022/04/13 10:39:04;;;;;;;5.32;1.67;;;28.20;36.70;;;;;;5003331;28;20159;-86
2022/04/13 10:41:54;;;;;;;4.97;1.80;;;28.40;36.30;;;;;;5006317;28;20068;-85
2022/04/13 10:45:03;;;;;;;6.55;1.90;;;28.70;35.50;;;;;;5010889;28;20062;-87
2022/04/13 10:47:57;;;;;;;5.82;1.60;;;28.30;35.90;;;;;;5008158;28;20053;-87
2022/04/13 10:50:51;;;;;;;7.00;1.40;;;28.20;37.40;;;;;;5007939;28;20049;-89
2022/04/13 10:53:58;;;;;;;5.63;1.60;;;27.80;36.10;;;;;;5015043;28;20391;-87
2022/04/13 10:56:50;;;;;;;8.20;1.80;;;27.90;36.10;;;;;;5004072;28;20045;-86
2022/04/13 10:59:47;;;;;;;7.38;1.80;;;27.60;37.30;;;;;;5005528;28;20061;-85
2022/04/13 11:02:41;;;;;;;4.38;1.58;;;27.80;34.50;;;;;;5008444;28;20057;-86
2022/04/13 11:05:29;;;;;;;6.85;1.50;;;27.70;35.30;;;;;;5011897;28;20057;-86
2022/04/13 11:08:24;;;;;;;6.97;1.58;;;28.20;37.10;;;;;;5001114;28;20471;-87
2022/04/13 11:11:20;;;;;;;8.80;1.95;;;28.20;35.00;;;;;;5003790;28;20042;-87
2022/04/13 11:14:18;;;;;;;5.97;1.58;;;27.90;34.90;;;;;;5005129;28;20046;-87
2022/04/13 11:17:07;;;;;;;6.03;1.95;;;27.90;36.40;;;;;;5003275;28;20497;-88
2022/04/13 11:20:22;;;;;;;7.53;2.17;;;28.30;36.00;;;;;;5003968;28;20038;-86
2022/04/13 11:23:15;;;;;;;7.90;2.03;;;27.80;35.70;;;;;;5004948;28;20045;-87
2022/04/13 11:26:03;;;;;;;6.00;2.08;;;28.00;35.80;;;;;;5000400;28;20372;-85
2022/04/13 11:29:09;;;;;;;6.38;1.40;;;28.50;36.00;;;;;;5003060;28;20050;-87
2022/04/13 11:31:59;;;;;;;12.00;1.92;;;29.00;34.90;;;;;;5011014;28;20042;-87
2022/04/13 11:34:56;;;;;;;10.90;5.28;;;29.50;35.20;;;;;;5015380;28;20038;-88
2022/04/13 11:37:44;;;;;;;8.27;2.38;;;29.40;33.50;;;;;;5012366;28;20131;-86
2022/04/13 11:40:34;;;;;;;8.80;2.30;;;29.40;35.20;;;;;;5010201;28;20150;-86
2022/04/13 11:43:22;;;;;;;8.45;2.20;;;29.40;33.40;;;;;;5008356;28;20050;-85
2022/04/13 11:46:39;;;;;;;9.27;2.35;;;29.30;33.30;;;;;;5004106;28;20128;-83
2022/04/13 11:49:32;;;;;;;6.07;1.70;;;29.10;32.70;;;;;;5005672;28;20057;-85
2022/04/13 11:52:48;;;;;;;7.60;1.52;;;29.30;34.50;;;;;;4999667;28;20038;-86
2022/04/13 11:55:44;;;;;;;5.47;1.60;;;30.00;33.50;;;;;;5005232;28;20157;-86
2022/04/13 12:03:00;;;;;;;6.40;1.83;;;30.00;33.10;;;;;;5005052;28;20037;-88
2022/04/13 12:14:01;;;;;;;4.97;2.03;;;30.20;31.20;;;;;;4945716;28;20122;-87
2022/04/13 12:17:08;;;;;;;6.80;2.30;;;29.90;29.40;;;;;;4952200;28;20126;-86
2022/04/13 12:19:56;;;;;;;7.15;2.05;;;29.20;31.60;;;;;;5006098;28;20052;-87
2022/04/13 12:22:46;;;;;;;5.72;1.98;;;29.90;34.10;;;;;;5008519;28;20047;-87
2022/04/13 12:29:45;;;;;;;7.45;1.85;;;30.80;31.90;;;;;;5005598;28;20062;-87
2022/04/13 12:37:33;;;;;;;7.35;1.95;;;31.20;28.60;;;;;;5010004;28;20033;-87
2022/04/13 12:40:32;;;;;;;7.53;2.13;;;30.30;28.60;;;;;;4997033;28;20676;-86
2022/04/13 12:43:27;;;;;;;6.82;2.38;;;30.90;29.10;;;;;;5006991;28;20042;-86
2022/04/13 12:46:32;;;;;;;9.63;2.08;;;31.00;30.10;;;;;;4951959;28;20039;-87
2022/04/13 12:53:56;;;;;;;6.47;1.92;;;31.40;29.50;;;;;;5005665;28;20042;-87
2022/04/13 12:57:03;;;;;;;5.90;1.90;;;32.80;30.90;;;;;;4966125;28;20068;-87
2022/04/13 13:00:34;;;;;;;3.13;1.33;;;32.30;28.80;;;;;;5003509;28;20234;-85
2022/04/13 13:17:11;;;;;;;11.35;1.92;;;32.70;26.50;;;;;;5008168;28;20057;-83
2022/04/13 13:20:35;;;;;;;9.00;1.77;;;32.10;27.10;;;;;;4990714;28;20070;-84
2022/04/13 13:27:38;;;;;;;7.60;1.60;;;32.10;26.90;;;;;;5011819;28;20041;-84
2022/04/13 13:35:26;;;;;;;7.15;2.08;;;31.20;28.60;;;;;;5009622;28;20443;-83
2022/04/13 13:38:48;;;;;;;8.68;1.75;;;31.80;27.50;;;;;;5007880;28;20097;-87
2022/04/13 13:41:38;;;;;;;8.63;1.85;;;31.70;29.80;;;;;;5010898;28;20053;-87
2022/04/13 13:44:29;;;;;;;10.10;1.73;;;30.70;27.00;;;;;;5007409;28;20157;-83
2022/04/13 13:48:22;;;;;;;5.03;1.88;;;30.60;27.60;;;;;;4993117;28;20038;-84
2022/04/13 13:59:26;;;;;;;10.93;2.20;;;29.90;28.20;;;;;;4920313;29;20153;-85
2022/04/13 14:10:38;;;;;;;5.78;1.40;;;31.50;28.40;;;;;;4951728;28;20059;-84
2022/04/13 14:13:52;;;;;;;5.32;1.60;;;30.70;27.90;;;;;;5016153;28;20038;-84
2022/04/13 14:28:48;;;;;;;10.07;1.65;;;31.80;26.80;;;;;;5016496;28;20021;-86
2022/04/13 14:32:07;;;;;;;15.25;2.33;;;30.40;26.50;;;;;;5027314;28;20045;-85
2022/04/13 14:35:57;;;;;;;8.73;1.65;;;30.20;27.90;;;;;;4998040;28;20101;-84
2022/04/13 14:51:47;;;;;;;11.73;1.85;;;30.70;26.60;;;;;;5006746;28;20037;-84
2022/04/13 15:03:33;;;;;;;9.20;1.90;;;31.00;28.00;;;;;;5002830;28;20026;-85
2022/04/13 15:06:44;;;;;;;6.70;1.88;;;30.60;26.10;;;;;;4971146;28;20066;-86
2022/04/13 15:09:59;;;;;;;9.35;2.20;;;29.00;27.10;;;;;;4966809;28;20054;-85
2022/04/13 15:13:27;;;;;;;10.43;1.77;;;28.60;29.10;;;;;;4968117;28;20057;-84
2022/04/13 15:16:15;;;;;;;6.82;1.80;;;28.90;29.10;;;;;;4978122;28;20057;-86
2022/04/13 15:19:28;;;;;;;16.90;2.05;;;28.50;30.40;;;;;;5006835;28;20383;-84
2022/04/13 15:22:56;;;;;;;10.13;2.35;;;28.30;30.00;;;;;;5001479;28;20047;-84
2022/04/13 15:26:12;;;;;;;10.10;2.00;;;28.20;30.90;;;;;;5011009;28;20339;-83
2022/04/13 15:29:19;;;;;;;8.25;1.70;;;28.30;31.20;;;;;;5000822;28;20045;-85
2022/04/13 15:32:21;;;;;;;6.00;1.92;;;27.30;32.40;;;;;;5002473;28;20049;-84
2022/04/13 15:35:28;;;;;;;8.40;1.98;;;26.40;34.80;;;;;;4992851;28;20050;-84
2022/04/13 15:39:10;;;;;;;13.23;2.03;;;26.00;35.70;;;;;;5015277;28;20108;-83
2022/04/13 15:42:22;;;;;;;14.27;2.38;;;25.90;36.00;;;;;;5000781;28;20058;-83
2022/04/13 15:45:10;;;;;;;6.95;1.85;;;26.20;36.00;;;;;;5008022;28;20057;-85
2022/04/13 15:48:00;;;;;;;11.27;2.08;;;26.20;35.80;;;;;;5009414;28;20076;-84
2022/04/13 15:51:01;;;;;;;8.77;2.17;;;26.10;37.10;;;;;;5003501;28;20049;-83
2022/04/13 15:58:21;;;;;;;7.20;2.03;;;26.60;37.30;;;;;;5004658;28;20717;-85
2022/04/13 16:01:22;;;;;;;10.45;1.98;;;26.80;36.70;;;;;;5016769;28;20160;-83
2022/04/13 16:04:10;;;;;;;11.82;1.83;;;26.20;36.70;;;;;;4994751;28;20053;-83
2022/04/13 16:07:49;;;;;;;;;;;;;;;;;;;;;
2022/04/13 16:11:08;;;;;;;8.67;2.17;;;25.40;37.10;;;;;;4936129;28;20042;-86
2022/04/13 16:13:55;;;;;;;13.73;2.30;;;24.40;39.90;;;;;;4990993;28;20060;-87
2022/04/13 16:16:56;;;;;;;11.52;2.00;;;24.00;41.40;;;;;;4975740;28;20500;-84
2022/04/13 16:23:53;;;;;;;9.90;2.08;;;23.60;42.80;;;;;;4964109;28;20035;-87
2022/04/13 16:26:46;;;;;;;14.18;2.03;;;23.60;42.00;;;;;;4954756;29;20406;-88
2022/04/13 16:30:38;;;;;;;9.73;1.88;;;23.60;43.00;;;;;;4953636;29;20051;-88
2022/04/13 16:34:14;;;;;;;3.03;1.80;;;23.50;43.30;;;;;;4879970;29;20061;-85
2022/04/13 16:37:46;;;;;;;7.35;1.80;;;23.20;43.00;;;;;;4816167;29;20057;-88
2022/04/13 16:45:43;;;;;;;11.18;1.50;;;22.30;42.80;;;;;;4824131;29;20102;-84
2022/04/13 16:55:56;;;;;;;10.50;2.28;;;21.40;43.00;;;;;;4944889;28;20023;-83
2022/04/13 16:59:11;;;;;;;9.05;2.00;;;21.20;44.60;;;;;;4949941;29;20105;-83
2022/04/13 17:02:46;;;;;;;10.43;1.92;;;21.00;44.60;;;;;;4946930;29;20065;-82
2022/04/13 17:06:05;;;;;;;8.85;1.58;;;20.80;43.90;;;;;;4915085;29;20105;-84
2022/04/13 17:09:48;;;;;;;12.32;1.95;;;20.60;45.20;;;;;;4946873;29;20052;-82
2022/04/13 17:14:39;;;;;;;18.42;2.50;;;20.50;45.50;;;;;;4941260;29;20341;-82
2022/04/13 17:17:12;;;;;;;10.77;1.60;;;20.40;44.70;;;;;;5016269;28;20045;-84
2022/04/13 17:20:31;;;;;;;9.88;1.88;;;20.20;45.70;;;;;;5010362;28;20228;-83
2022/04/13 17:23:39;;;;;;;8.50;1.98;;;20.10;45.30;;;;;;5003280;28;20053;-83
2022/04/13 17:26:28;;;;;;;14.00;2.13;;;20.00;45.30;;;;;;5004901;28;20038;-84
2022/04/13 17:29:20;;;;;;;10.15;2.08;;;19.80;46.60;;;;;;5001941;28;20054;-84
2022/04/13 17:32:11;;;;;;;10.93;2.35;;;19.70;46.40;;;;;;5010800;28;20360;-84
2022/04/13 17:35:56;;;;;;;;;;;;;;;;;;;;;